Time;durP1;ratioP1;P1;durP2;ratioP2;P2;SDS_P1;SDS_P2;PMS_P1;PMS_P2;Temp;Humidity;BMP_temperature;BMP_pressure;BME280_temperature;BME280_humidity;BME280_pressure;Samples;Min_cycle;Max_cycle;Signal;HPM_P1;HPM_P2
2021/12/21 00:00:16;;;;;;;11.80;5.03;;;;;;;;;;4892701;29;20052;-80
2021/12/21 00:02:43;;;;;;;9.87;4.63;;;;;;;;;;4885981;29;20050;-80
2021/12/21 00:05:28;;;;;;;7.60;4.10;;;;;;;;;;4877453;29;20642;-80
2021/12/21 00:07:55;;;;;;;9.27;4.73;;;;;;;;;;4879512;29;20504;-80
2021/12/21 00:10:23;;;;;;;7.60;4.67;;;;;;;;;;4874661;29;20139;-80
2021/12/21 00:13:23;;;;;;;7.17;4.47;;;;;;;;;;4878120;29;20052;-80
2021/12/21 00:20:49;;;;;;;13.07;5.17;;;;;;;;;;4885663;29;20220;-81
2021/12/21 00:23:36;;;;;;;10.30;4.97;;;;;;;;;;4861072;29;20060;-80
2021/12/21 00:26:08;;;;;;;8.83;4.70;;;;;;;;;;4880525;29;20135;-81
2021/12/21 00:28:46;;;;;;;10.25;4.93;;;;;;;;;;4843394;29;20058;-81
2021/12/21 00:31:14;;;;;;;8.55;4.47;;;;;;;;;;4858374;29;20729;-81
2021/12/21 00:33:45;;;;;;;;;;;;;;;;;;4861676;29;20048;-81
2021/12/21 00:36:13;;;;;;;7.27;4.70;;;;;;;;;;4856377;29;19926;-81
2021/12/21 00:38:40;;;;;;;9.68;4.68;;;;;;;;;;4846179;29;20045;-81
2021/12/21 00:41:06;;;;;;;11.40;4.97;;;;;;;;;;4848316;29;20052;-81
2021/12/21 00:43:34;;;;;;;8.80;4.90;;;;;;;;;;4869118;29;20068;-80
2021/12/21 00:46:09;;;;;;;6.73;4.30;;;;;;;;;;4855324;29;20051;-81
2021/12/21 00:48:37;;;;;;;8.97;4.73;;;;;;;;;;4875018;29;20056;-80
2021/12/21 00:51:13;;;;;;;12.50;4.60;;;;;;;;;;4871626;29;20083;-80
2021/12/21 00:53:40;;;;;;;14.10;5.47;;;;;;;;;;4857509;29;20048;-80
2021/12/21 00:56:07;;;;;;;7.93;5.23;;;;;;;;;;4919266;28;20437;-81
2021/12/21 00:58:34;;;;;;;6.73;4.73;;;;;;;;;;4882010;29;20418;-80
2021/12/21 01:01:06;;;;;;;7.17;4.43;;;;;;;;;;4880247;29;20055;-80
2021/12/21 01:03:42;;;;;;;7.13;4.70;;;;;;;;;;4906334;29;20047;-81
2021/12/21 01:07:00;;;;;;;9.97;4.60;;;;;;;;;;4876169;29;20063;-81
2021/12/21 01:11:52;;;;;;;7.90;4.77;;;;;;;;;;4900171;29;20092;-81
2021/12/21 01:17:12;;;;;;;8.53;4.47;;;;;;;;;;4913457;29;20043;-81
2021/12/21 01:19:46;;;;;;;7.60;4.43;;;;;;;;;;4880343;29;20048;-81
2021/12/21 01:36:02;;;;;;;7.33;3.70;;;;;;;;;;4880327;29;20098;-80
2021/12/21 01:38:50;;;;;;;8.73;4.13;;;;;;;;;;4870801;29;20144;-80
2021/12/21 01:42:01;;;;;;;10.80;3.80;;;;;;;;;;4880790;29;20471;-80
2021/12/21 01:49:52;;;;;;;5.73;3.57;;;;;;;;;;4876549;29;20083;-80
2021/12/21 01:52:21;;;;;;;8.80;3.88;;;;;;;;;;4885331;29;20115;-80
2021/12/21 01:54:49;;;;;;;6.63;3.93;;;;;;;;;;4908449;28;20055;-80
2021/12/21 01:57:17;;;;;;;5.93;3.65;;;;;;;;;;4889913;29;20048;-80
2021/12/21 01:59:45;;;;;;;8.98;3.88;;;;;;;;;;4894551;29;20172;-80
2021/12/21 02:02:11;;;;;;;8.52;4.15;;;;;;;;;;4842141;29;20048;-80
2021/12/21 02:04:52;;;;;;;7.63;3.63;;;;;;;;;;4845103;29;20048;-80
2021/12/21 02:07:20;;;;;;;7.67;3.87;;;;;;;;;;4872159;29;20080;-80
2021/12/21 02:09:47;;;;;;;7.20;3.70;;;;;;;;;;4859621;29;20053;-80
2021/12/21 02:12:15;;;;;;;8.20;3.83;;;;;;;;;;4874203;29;20048;-80
2021/12/21 02:14:42;;;;;;;5.95;3.25;;;;;;;;;;4864076;29;20063;-80
2021/12/21 02:20:37;;;;;;;9.97;4.10;;;;;;;;;;4875189;29;20487;-80
2021/12/21 02:23:20;;;;;;;7.63;3.97;;;;;;;;;;4851242;29;20588;-80
2021/12/21 02:31:20;;;;;;;6.27;4.30;;;;;;;;;;4864125;29;20048;-80
2021/12/21 02:33:49;;;;;;;8.43;4.03;;;;;;;;;;4877607;29;20052;-80
2021/12/21 02:36:16;;;;;;;7.80;3.90;;;;;;;;;;4894316;29;20062;-80
2021/12/21 02:38:43;;;;;;;8.67;4.30;;;;;;;;;;4899427;29;20051;-80
2021/12/21 02:41:13;;;;;;;10.80;4.30;;;;;;;;;;4914548;28;20043;-80
2021/12/21 02:43:39;;;;;;;10.07;4.50;;;;;;;;;;4904808;28;20099;-80
2021/12/21 02:46:06;;;;;;;8.67;4.63;;;;;;;;;;4895575;28;20052;-80
2021/12/21 02:48:45;;;;;;;7.90;4.37;;;;;;;;;;4936218;28;20051;-80
2021/12/21 02:51:11;;;;;;;8.02;4.78;;;;;;;;;;4916539;28;20305;-80
2021/12/21 02:53:38;;;;;;;6.50;4.80;;;;;;;;;;4917250;28;20399;-80
2021/12/21 02:56:04;;;;;;;8.87;4.90;;;;;;;;;;4917724;29;20059;-80
2021/12/21 02:58:30;;;;;;;5.37;4.40;;;;;;;;;;4918426;28;20079;-80
2021/12/21 03:00:57;;;;;;;12.00;4.80;;;;;;;;;;4913603;28;20053;-80
2021/12/21 03:03:26;;;;;;;9.47;5.27;;;;;;;;;;4912314;28;20533;-80
2021/12/21 03:05:57;;;;;;;11.20;4.90;;;;;;;;;;4918977;28;20477;-81
2021/12/21 03:08:35;;;;;;;10.57;4.47;;;;;;;;;;4901483;28;20434;-81
2021/12/21 03:11:17;;;;;;;8.80;4.57;;;;;;;;;;4916333;29;20069;-81
2021/12/21 03:16:32;;;;;;;8.33;4.93;;;;;;;;;;4901443;29;20486;-81
2021/12/21 03:19:00;;;;;;;8.45;4.70;;;;;;;;;;4913918;28;20070;-80
2021/12/21 03:21:26;;;;;;;9.13;4.93;;;;;;;;;;4885582;28;22222;-81
2021/12/21 03:23:53;;;;;;;7.50;4.30;;;;;;;;;;4885728;28;20450;-80
2021/12/21 03:26:20;;;;;;;8.27;4.87;;;;;;;;;;4900809;28;20051;-80
2021/12/21 03:28:47;;;;;;;7.60;4.80;;;;;;;;;;4917550;28;20059;-81
2021/12/21 03:31:13;;;;;;;10.67;4.87;;;;;;;;;;4892878;28;20050;-80
2021/12/21 03:33:40;;;;;;;7.97;4.50;;;;;;;;;;4920461;28;20047;-80
2021/12/21 03:36:08;;;;;;;7.43;4.43;;;;;;;;;;4914890;28;20046;-81
2021/12/21 03:38:36;;;;;;;9.73;4.17;;;;;;;;;;4919557;28;20048;-80
2021/12/21 03:41:10;;;;;;;6.73;4.03;;;;;;;;;;4915658;28;20114;-80
2021/12/21 03:43:37;;;;;;;9.30;4.33;;;;;;;;;;4919273;29;20047;-81
2021/12/21 03:46:09;;;;;;;5.03;3.87;;;;;;;;;;4904895;28;21824;-80
2021/12/21 03:48:35;;;;;;;7.17;4.20;;;;;;;;;;4900165;29;20047;-80
2021/12/21 03:51:05;;;;;;;7.53;3.93;;;;;;;;;;4934539;28;20066;-80
2021/12/21 03:53:41;;;;;;;8.53;4.30;;;;;;;;;;4925455;28;20882;-80
2021/12/21 03:56:42;;;;;;;11.50;4.47;;;;;;;;;;4899919;28;20387;-80
2021/12/21 03:59:02;;;;;;;6.20;3.83;;;;;;;;;;4928488;28;20047;-80
2021/12/21 04:01:28;;;;;;;7.23;3.53;;;;;;;;;;4910748;28;20082;-80
2021/12/21 04:03:54;;;;;;;5.97;3.60;;;;;;;;;;4919404;28;20048;-80
2021/12/21 04:06:21;;;;;;;5.43;3.83;;;;;;;;;;4896751;28;20066;-80
2021/12/21 04:08:48;;;;;;;8.57;4.37;;;;;;;;;;4901706;28;20134;-80
2021/12/21 04:11:29;;;;;;;5.73;4.07;;;;;;;;;;4920877;28;20039;-80
2021/12/21 04:13:56;;;;;;;4.93;3.60;;;;;;;;;;4900181;29;20075;-80
2021/12/21 04:16:22;;;;;;;6.25;3.63;;;;;;;;;;4914556;28;20040;-80
2021/12/21 04:18:48;;;;;;;11.80;4.00;;;;;;;;;;4919231;28;20494;-80
2021/12/21 04:21:31;;;;;;;6.93;3.70;;;;;;;;;;4880616;29;20577;-80
2021/12/21 04:23:57;;;;;;;10.33;3.97;;;;;;;;;;4880561;29;20052;-80
2021/12/21 04:26:23;;;;;;;8.67;4.20;;;;;;;;;;4862620;29;20044;-80
2021/12/21 04:28:50;;;;;;;7.77;3.47;;;;;;;;;;4851002;29;20044;-80
2021/12/21 04:31:32;;;;;;;3.80;3.10;;;;;;;;;;4870541;29;20041;-80
2021/12/21 04:33:59;;;;;;;9.00;4.00;;;;;;;;;;4840628;29;20059;-80
2021/12/21 04:36:28;;;;;;;5.70;3.80;;;;;;;;;;4857468;29;20044;-80
2021/12/21 04:38:57;;;;;;;8.02;3.60;;;;;;;;;;4872540;29;20508;-80
2021/12/21 04:41:26;;;;;;;6.23;3.30;;;;;;;;;;4855771;29;20227;-80
2021/12/21 04:43:53;;;;;;;5.83;3.50;;;;;;;;;;4872967;29;20696;-80
2021/12/21 04:46:19;;;;;;;6.90;4.03;;;;;;;;;;4870754;29;20044;-80
2021/12/21 04:48:48;;;;;;;7.50;3.50;;;;;;;;;;4847521;29;20044;-80
2021/12/21 04:51:15;;;;;;;8.63;3.63;;;;;;;;;;4842779;29;20056;-80
2021/12/21 04:53:45;;;;;;;5.20;3.70;;;;;;;;;;4894038;29;20102;-80
2021/12/21 04:56:12;;;;;;;7.90;3.83;;;;;;;;;;4862134;29;20063;-80
2021/12/21 04:58:39;;;;;;;7.37;3.33;;;;;;;;;;4860011;29;20087;-80
2021/12/21 05:01:07;;;;;;;10.37;4.20;;;;;;;;;;4878023;29;20601;-80
2021/12/21 05:03:34;;;;;;;6.65;3.47;;;;;;;;;;4911344;28;20073;-81
2021/12/21 05:06:01;;;;;;;4.73;3.83;;;;;;;;;;4929319;28;20050;-81
2021/12/21 05:08:37;;;;;;;8.87;3.90;;;;;;;;;;4930908;28;20142;-81
2021/12/21 05:11:18;;;;;;;7.33;3.60;;;;;;;;;;4891056;28;20043;-80
2021/12/21 05:13:47;;;;;;;9.50;4.00;;;;;;;;;;4897076;29;20074;-81
2021/12/21 05:16:13;;;;;;;6.70;3.15;;;;;;;;;;4910695;28;20454;-81
2021/12/21 05:18:39;;;;;;;7.97;3.47;;;;;;;;;;4915822;28;20062;-82
2021/12/21 05:21:05;;;;;;;4.57;3.17;;;;;;;;;;4915283;28;20054;-81
2021/12/21 05:23:33;;;;;;;7.77;3.57;;;;;;;;;;4904401;28;20114;-81
2021/12/21 05:26:00;;;;;;;6.90;3.07;;;;;;;;;;4901708;28;20067;-81
2021/12/21 05:28:28;;;;;;;6.57;3.20;;;;;;;;;;4911220;28;22946;-81
2021/12/21 05:30:54;;;;;;;5.30;3.57;;;;;;;;;;4903163;28;20058;-82
2021/12/21 05:33:20;;;;;;;7.30;3.63;;;;;;;;;;4878944;28;20117;-82
2021/12/21 05:35:48;;;;;;;5.67;3.43;;;;;;;;;;4915094;28;20054;-82
2021/12/21 05:38:19;;;;;;;7.03;3.30;;;;;;;;;;4924237;28;20050;-82
2021/12/21 05:40:46;;;;;;;7.00;3.40;;;;;;;;;;4917581;28;20146;-81
2021/12/21 05:43:14;;;;;;;;;;;;;;;;;;4893399;28;20047;-80
2021/12/21 05:45:40;;;;;;;7.07;3.30;;;;;;;;;;4897488;28;20389;-80
2021/12/21 05:48:09;;;;;;;6.37;3.20;;;;;;;;;;4930190;28;20137;-82
2021/12/21 05:50:36;;;;;;;7.37;3.10;;;;;;;;;;4921536;28;20089;-81
2021/12/21 05:53:02;;;;;;;6.03;3.87;;;;;;;;;;4904010;28;20117;-81
2021/12/21 05:55:29;;;;;;;6.20;3.37;;;;;;;;;;4894875;28;20059;-80
2021/12/21 05:57:56;;;;;;;6.17;3.70;;;;;;;;;;4908678;28;20048;-80
2021/12/21 06:00:24;;;;;;;7.03;3.80;;;;;;;;;;4894942;28;20060;-80
2021/12/21 06:02:50;;;;;;;7.78;3.63;;;;;;;;;;4932071;28;20111;-80
2021/12/21 06:05:17;;;;;;;8.00;3.07;;;;;;;;;;4914207;28;20051;-80
2021/12/21 06:07:46;;;;;;;8.80;3.93;;;;;;;;;;4886947;28;20054;-79
2021/12/21 06:10:17;;;;;;;;;;;;;;;;;;4883681;28;20051;-80
2021/12/21 06:13:11;;;;;;;8.57;3.33;;;;;;;;;;4917987;28;20419;-79
2021/12/21 06:26:52;;;;;;;6.97;3.00;;;;;;;;;;4864971;29;20041;-80
2021/12/21 06:29:20;;;;;;;5.07;3.70;;;;;;;;;;4865706;29;20575;-80
2021/12/21 06:31:48;;;;;;;7.70;3.40;;;;;;;;;;4901198;28;20062;-81
2021/12/21 06:34:15;;;;;;;7.18;3.65;;;;;;;;;;4907701;28;20051;-81
2021/12/21 06:36:47;;;;;;;5.67;3.30;;;;;;;;;;4935749;28;20243;-81
2021/12/21 06:39:14;;;;;;;5.03;3.57;;;;;;;;;;4915353;28;20051;-82
2021/12/21 06:41:41;;;;;;;7.90;4.30;;;;;;;;;;4900654;28;20086;-79
2021/12/21 06:44:10;;;;;;;6.53;3.87;;;;;;;;;;4897587;28;20728;-79
2021/12/21 06:52:22;;;;;;;8.03;4.10;;;;;;;;;;4834644;29;20079;-79
2021/12/21 06:54:49;;;;;;;6.13;3.40;;;;;;;;;;4874200;29;20057;-80
2021/12/21 06:57:16;;;;;;;6.27;3.73;;;;;;;;;;4870679;29;20053;-80
2021/12/21 06:59:44;;;;;;;6.77;4.17;;;;;;;;;;4864043;29;20048;-80
2021/12/21 07:02:10;;;;;;;8.45;3.45;;;;;;;;;;4863963;29;20054;-80
2021/12/21 07:04:37;;;;;;;5.03;3.37;;;;;;;;;;4865661;29;20170;-80
2021/12/21 07:07:03;;;;;;;7.47;3.60;;;;;;;;;;4848179;29;20495;-80
2021/12/21 07:09:41;;;;;;;8.33;2.93;;;;;;;;;;4853301;29;20362;-80
2021/12/21 07:17:46;;;;;;;4.70;3.33;;;;;;;;;;4874724;29;20083;-80
2021/12/21 07:18:25;;;;;;;6.33;3.80;;;;;;;;;;4848925;29;20044;-75
2021/12/21 07:20:45;;;;;;;7.87;4.27;;;;;;;;;;4884875;28;20134;-80
2021/12/21 07:23:12;;;;;;;8.20;4.77;;;;;;;;;;4883571;28;20047;-80
2021/12/21 07:25:39;;;;;;;10.07;4.90;;;;;;;;;;4894346;28;20048;-80
2021/12/21 07:28:06;;;;;;;8.20;4.77;;;;;;;;;;4925106;28;20043;-80
2021/12/21 07:30:32;;;;;;;6.90;5.17;;;;;;;;;;4941022;28;20047;-80
2021/12/21 07:32:59;;;;;;;7.03;4.57;;;;;;;;;;4928319;28;20054;-80
2021/12/21 07:35:25;;;;;;;8.53;4.63;;;;;;;;;;4917738;28;20174;-80
2021/12/21 07:37:53;;;;;;;8.40;4.70;;;;;;;;;;4913859;28;20500;-79
2021/12/21 07:40:20;;;;;;;7.63;4.67;;;;;;;;;;4883753;29;20083;-78
2021/12/21 07:42:55;;;;;;;8.73;4.50;;;;;;;;;;4910990;29;20567;-78
2021/12/21 07:45:22;;;;;;;7.60;4.37;;;;;;;;;;4858775;28;20039;-78
2021/12/21 07:47:49;;;;;;;8.75;4.68;;;;;;;;;;4896885;29;20044;-79
2021/12/21 07:50:16;;;;;;;9.20;4.23;;;;;;;;;;4866797;29;20048;-79
2021/12/21 07:52:44;;;;;;;7.67;4.63;;;;;;;;;;4882637;28;20035;-80
2021/12/21 07:55:12;;;;;;;8.95;5.10;;;;;;;;;;4907265;29;20039;-81
2021/12/21 07:57:39;;;;;;;6.85;4.90;;;;;;;;;;4918066;29;20563;-80
2021/12/21 08:00:11;;;;;;;11.10;4.97;;;;;;;;;;4878434;29;20044;-79
2021/12/21 08:02:39;;;;;;;9.87;5.43;;;;;;;;;;4904006;29;20059;-80
2021/12/21 08:05:07;;;;;;;8.90;5.13;;;;;;;;;;4893104;29;20187;-80
2021/12/21 08:07:54;;;;;;;12.47;5.73;;;;;;;;;;4913983;29;20187;-80
2021/12/21 08:10:28;;;;;;;7.23;5.00;;;;;;;;;;4878567;29;20052;-80
2021/12/21 08:12:58;;;;;;;8.20;4.60;;;;;;;;;;4901912;29;20059;-78
2021/12/21 08:15:25;;;;;;;9.00;4.97;;;;;;;;;;4893215;29;20058;-78
2021/12/21 08:17:52;;;;;;;9.83;5.07;;;;;;;;;;4897595;29;20062;-79
2021/12/21 08:20:19;;;;;;;12.60;5.80;;;;;;;;;;4890957;29;20071;-80
2021/12/21 08:22:46;;;;;;;9.83;5.20;;;;;;;;;;4892954;29;20586;-78
2021/12/21 08:25:13;;;;;;;10.17;5.33;;;;;;;;;;4887788;29;20130;-79
2021/12/21 08:27:40;;;;;;;8.67;5.17;;;;;;;;;;4898425;29;20032;-80
2021/12/21 08:30:07;;;;;;;9.07;4.93;;;;;;;;;;4900619;29;20057;-79
2021/12/21 08:32:33;;;;;;;8.90;4.80;;;;;;;;;;4878507;29;20052;-81
2021/12/21 08:35:00;;;;;;;12.27;5.87;;;;;;;;;;4900391;29;20056;-80
2021/12/21 08:37:28;;;;;;;12.40;5.17;;;;;;;;;;4893619;29;20055;-79
2021/12/21 08:39:56;;;;;;;11.05;5.45;;;;;;;;;;4898485;28;20054;-80
2021/12/21 08:42:24;;;;;;;9.67;5.33;;;;;;;;;;4908850;28;20126;-80
2021/12/21 08:44:51;;;;;;;11.90;4.90;;;;;;;;;;4907996;28;20043;-80
2021/12/21 08:47:18;;;;;;;10.10;5.77;;;;;;;;;;4892709;28;20494;-80
2021/12/21 08:49:46;;;;;;;12.77;6.40;;;;;;;;;;4897251;28;20051;-80
2021/12/21 08:52:12;;;;;;;10.50;6.43;;;;;;;;;;4914159;28;20062;-79
2021/12/21 08:54:39;;;;;;;10.07;6.40;;;;;;;;;;4931253;28;20051;-80
2021/12/21 08:57:07;;;;;;;13.63;6.90;;;;;;;;;;4902708;29;20050;-80
2021/12/21 08:59:34;;;;;;;12.13;7.83;;;;;;;;;;4918758;28;20032;-79
2021/12/21 09:02:09;;;;;;;10.07;7.57;;;;;;;;;;4932373;28;20178;-81
2021/12/21 09:04:39;;;;;;;14.23;7.50;;;;;;;;;;4902652;28;20502;-79
2021/12/21 09:07:08;;;;;;;12.23;7.73;;;;;;;;;;4927246;28;20067;-80
2021/12/21 09:09:34;;;;;;;11.80;8.00;;;;;;;;;;4903386;28;20106;-81
2021/12/21 09:12:06;;;;;;;14.20;7.73;;;;;;;;;;4930952;28;20062;-82
2021/12/21 09:14:34;;;;;;;13.45;8.02;;;;;;;;;;4879955;28;20175;-81
2021/12/21 09:17:01;;;;;;;11.30;7.78;;;;;;;;;;4909458;28;21979;-80
2021/12/21 09:19:28;;;;;;;10.73;8.00;;;;;;;;;;4889040;28;20051;-79
2021/12/21 09:21:54;;;;;;;10.00;7.80;;;;;;;;;;4894611;28;20066;-80
2021/12/21 09:24:20;;;;;;;13.00;8.10;;;;;;;;;;4888588;28;20114;-80
2021/12/21 09:26:49;;;;;;;13.60;8.03;;;;;;;;;;4912630;28;20050;-80
2021/12/21 09:29:16;;;;;;;11.60;8.30;;;;;;;;;;4908706;28;20059;-80
2021/12/21 09:31:43;;;;;;;14.40;9.13;;;;;;;;;;4930173;28;20118;-81
2021/12/21 09:34:15;;;;;;;14.63;10.13;;;;;;;;;;4924055;28;20050;-82
2021/12/21 09:36:43;;;;;;;13.90;9.17;;;;;;;;;;4893658;28;20075;-81
2021/12/21 09:39:10;;;;;;;11.57;9.10;;;;;;;;;;4908915;28;20082;-78
2021/12/21 09:41:37;;;;;;;12.73;9.97;;;;;;;;;;4924846;28;20055;-81
2021/12/21 09:44:04;;;;;;;12.03;9.63;;;;;;;;;;4878599;28;20051;-81
2021/12/21 09:46:49;;;;;;;8.77;7.60;;;;;;;;;;4877456;29;20052;-80
2021/12/21 09:49:25;;;;;;;10.93;8.93;;;;;;;;;;4888548;29;20086;-81
2021/12/21 09:51:52;;;;;;;12.73;8.15;;;;;;;;;;4890717;29;20051;-81
2021/12/21 09:54:22;;;;;;;10.48;7.82;;;;;;;;;;4888691;29;20147;-81
2021/12/21 09:56:52;;;;;;;15.82;7.53;;;;;;;;;;4879984;29;20467;-81
2021/12/21 09:59:19;;;;;;;9.32;7.45;;;;;;;;;;4889118;29;20103;-81
2021/12/21 10:01:47;;;;;;;9.65;7.80;;;;;;;;;;4863375;29;20056;-82
2021/12/21 10:04:14;;;;;;;8.95;7.45;;;;;;;;;;4857482;29;20052;-82
2021/12/21 10:06:47;;;;;;;11.82;8.02;;;;;;;;;;4893340;29;20051;-82
2021/12/21 10:09:14;;;;;;;9.38;7.15;;;;;;;;;;4858670;29;20041;-82
2021/12/21 10:11:42;;;;;;;11.48;8.25;;;;;;;;;;4864316;29;20059;-81
2021/12/21 10:14:08;;;;;;;10.02;8.48;;;;;;;;;;4871678;29;20108;-80
2021/12/21 10:16:37;;;;;;;13.93;8.75;;;;;;;;;;4862708;29;20446;-81
2021/12/21 10:19:05;;;;;;;10.52;8.20;;;;;;;;;;4898152;28;20058;-81
2021/12/21 10:21:31;;;;;;;13.32;9.00;;;;;;;;;;4852683;29;20539;-82
2021/12/21 10:23:57;;;;;;;12.10;9.05;;;;;;;;;;4890888;29;20555;-81
2021/12/21 10:26:30;;;;;;;10.80;8.43;;;;;;;;;;4887546;29;20047;-82
2021/12/21 10:29:07;;;;;;;12.90;9.00;;;;;;;;;;4877125;29;20048;-83
2021/12/21 10:31:50;;;;;;;10.65;9.55;;;;;;;;;;4885406;29;20041;-82
2021/12/21 10:34:17;;;;;;;10.52;9.25;;;;;;;;;;4838992;29;20055;-82
2021/12/21 10:36:44;;;;;;;11.27;9.63;;;;;;;;;;4873199;29;20052;-82
2021/12/21 10:39:14;;;;;;;14.77;9.85;;;;;;;;;;4852605;29;20044;-82
2021/12/21 10:41:43;;;;;;;12.90;9.48;;;;;;;;;;4862865;29;20060;-83
2021/12/21 10:44:20;;;;;;;12.30;10.30;;;;;;;;;;4872711;29;20578;-82
2021/12/21 10:46:48;;;;;;;13.48;9.55;;;;;;;;;;4878198;29;20054;-82
2021/12/21 10:49:18;;;;;;;13.15;10.13;;;;;;;;;;4874394;29;20048;-81
2021/12/21 10:52:09;;;;;;;11.07;9.65;;;;;;;;;;4894440;29;20047;-81
2021/12/21 10:54:44;;;;;;;12.95;9.85;;;;;;;;;;4914795;29;20043;-82
2021/12/21 10:57:12;;;;;;;11.80;9.70;;;;;;;;;;4882227;29;20922;-81
2021/12/21 10:59:50;;;;;;;11.35;9.45;;;;;;;;;;4898870;29;20143;-83
2021/12/21 11:02:36;;;;;;;12.95;10.20;;;;;;;;;;4886403;28;20485;-83
2021/12/21 11:05:05;;;;;;;11.32;10.02;;;;;;;;;;4909241;28;20043;-82
2021/12/21 11:08:06;;;;;;;15.98;10.73;;;;;;;;;;4927042;28;20078;-81
2021/12/21 11:10:30;;;;;;;15.05;10.85;;;;;;;;;;4895560;28;22137;-81
2021/12/21 11:12:59;;;;;;;15.88;11.48;;;;;;;;;;4914245;28;20062;-81
2021/12/21 11:15:39;;;;;;;12.98;11.30;;;;;;;;;;4906482;28;20044;-82
2021/12/21 11:18:25;;;;;;;14.48;11.27;;;;;;;;;;4926209;28;20054;-81
2021/12/21 11:21:09;;;;;;;18.30;11.55;;;;;;;;;;4884827;29;20060;-80
2021/12/21 11:23:45;;;;;;;14.98;11.90;;;;;;;;;;4877528;29;20048;-82
2021/12/21 11:26:13;;;;;;;13.93;10.73;;;;;;;;;;4872769;29;20055;-83
2021/12/21 11:28:40;;;;;;;13.55;11.25;;;;;;;;;;4874075;29;20051;-82
2021/12/21 11:31:07;;;;;;;16.38;11.82;;;;;;;;;;4865202;29;20040;-81
2021/12/21 11:33:40;;;;;;;16.02;11.00;;;;;;;;;;4903002;29;20059;-81
2021/12/21 11:38:55;;;;;;;14.35;10.10;;;;;;;;;;4890183;29;20045;-84
2021/12/21 11:41:22;;;;;;;13.15;10.10;;;;;;;;;;4894386;29;20066;-84
2021/12/21 11:43:57;;;;;;;14.15;9.45;;;;;;;;;;4872284;29;20098;-84
2021/12/21 11:46:27;;;;;;;12.25;9.15;;;;;;;;;;4861116;29;20052;-83
2021/12/21 11:49:12;;;;;;;12.88;9.48;;;;;;;;;;4862724;29;20480;-82
2021/12/21 11:51:39;;;;;;;10.05;8.27;;;;;;;;;;4894687;28;20066;-82
2021/12/21 11:54:29;;;;;;;10.95;9.48;;;;;;;;;;4889340;29;20607;-82
2021/12/21 11:57:01;;;;;;;10.77;8.63;;;;;;;;;;4882385;28;20039;-85
2021/12/21 11:59:33;;;;;;;10.65;8.35;;;;;;;;;;4898726;28;20047;-83
2021/12/21 12:02:02;;;;;;;11.98;8.95;;;;;;;;;;4886190;28;20039;-83
2021/12/21 12:04:35;;;;;;;12.73;8.40;;;;;;;;;;4897438;28;20043;-83
2021/12/21 12:07:03;;;;;;;10.20;8.05;;;;;;;;;;4899990;28;20047;-85
2021/12/21 12:09:31;;;;;;;10.23;7.85;;;;;;;;;;4901749;28;20124;-82
2021/12/21 12:12:19;;;;;;;12.32;8.43;;;;;;;;;;4904255;29;20044;-82
2021/12/21 12:14:59;;;;;;;11.82;8.27;;;;;;;;;;4903739;29;20090;-82
2021/12/21 12:17:26;;;;;;;12.57;8.70;;;;;;;;;;4890698;29;20071;-82
2021/12/21 12:20:07;;;;;;;12.55;8.55;;;;;;;;;;4909425;29;20102;-82
2021/12/21 12:22:38;;;;;;;11.68;8.70;;;;;;;;;;4895196;29;20032;-82
2021/12/21 12:25:26;;;;;;;10.80;9.20;;;;;;;;;;4892292;29;20071;-82
2021/12/21 12:27:56;;;;;;;13.50;9.65;;;;;;;;;;4904791;29;20032;-83
2021/12/21 12:30:28;;;;;;;15.15;9.35;;;;;;;;;;4913081;29;20031;-83
2021/12/21 12:32:55;;;;;;;15.32;9.57;;;;;;;;;;4866848;29;20080;-83
2021/12/21 12:35:25;;;;;;;14.32;10.07;;;;;;;;;;4888301;29;20048;-83
2021/12/21 12:38:00;;;;;;;16.70;10.32;;;;;;;;;;4901637;29;20045;-83
2021/12/21 12:40:30;;;;;;;12.80;9.43;;;;;;;;;;4889238;29;20064;-83
2021/12/21 12:43:16;;;;;;;14.77;9.40;;;;;;;;;;4902199;29;20051;-84
2021/12/21 12:45:49;;;;;;;15.43;10.35;;;;;;;;;;4905033;28;20423;-83
2021/12/21 12:48:35;;;;;;;14.88;9.70;;;;;;;;;;4900183;28;20051;-84
2021/12/21 12:51:04;;;;;;;14.23;10.25;;;;;;;;;;4913809;28;20054;-83
2021/12/21 12:53:51;;;;;;;12.57;10.07;;;;;;;;;;4906120;28;20058;-84
2021/12/21 12:56:20;;;;;;;16.05;9.93;;;;;;;;;;4905739;28;20054;-85
2021/12/21 12:59:11;;;;;;;15.05;9.98;;;;;;;;;;4932001;28;20058;-83
2021/12/21 13:01:42;;;;;;;15.02;10.30;;;;;;;;;;4930173;29;20066;-84
2021/12/21 13:04:10;;;;;;;14.75;10.45;;;;;;;;;;4924039;28;20039;-83
2021/12/21 13:06:46;;;;;;;14.38;10.55;;;;;;;;;;4907126;28;20047;-84
2021/12/21 13:09:15;;;;;;;17.98;10.13;;;;;;;;;;4932024;28;20054;-85
2021/12/21 13:11:41;;;;;;;15.88;11.02;;;;;;;;;;4939206;28;20049;-83
2021/12/21 13:14:28;;;;;;;20.80;11.25;;;;;;;;;;4933062;28;20107;-84
2021/12/21 13:16:58;;;;;;;14.63;10.57;;;;;;;;;;4921355;29;20043;-83
2021/12/21 13:19:26;;;;;;;18.70;11.80;;;;;;;;;;4924108;28;20146;-83
2021/12/21 13:22:02;;;;;;;15.63;10.45;;;;;;;;;;4912395;28;20047;-83
2021/12/21 13:24:43;;;;;;;14.52;10.60;;;;;;;;;;4940598;28;20055;-83
2021/12/21 13:27:20;;;;;;;;;;;;;;;;;;4921659;28;20043;-85
2021/12/21 13:29:47;;;;;;;16.85;11.20;;;;;;;;;;4930322;28;19926;-84
2021/12/21 13:32:15;;;;;;;15.55;11.07;;;;;;;;;;4887382;28;20047;-87
2021/12/21 13:34:49;;;;;;;18.85;11.07;;;;;;;;;;4925289;28;20126;-85
2021/12/21 13:37:22;;;;;;;23.83;11.52;;;;;;;;;;4934374;28;20053;-83
2021/12/21 13:39:59;;;;;;;13.57;10.70;;;;;;;;;;4915395;28;20093;-84
2021/12/21 13:42:35;;;;;;;14.50;10.93;;;;;;;;;;4919998;28;20078;-84
2021/12/21 13:45:04;;;;;;;16.55;10.75;;;;;;;;;;4910044;28;20110;-84
2021/12/21 13:47:36;;;;;;;14.48;11.73;;;;;;;;;;4897441;28;20052;-84
2021/12/21 13:50:10;;;;;;;14.18;10.45;;;;;;;;;;4929606;28;20062;-83
2021/12/21 13:52:39;;;;;;;14.75;11.70;;;;;;;;;;4912844;28;23510;-84
2021/12/21 13:55:30;;;;;;;16.75;11.00;;;;;;;;;;4926589;28;20044;-84
2021/12/21 13:57:57;;;;;;;15.45;11.35;;;;;;;;;;4941803;28;20101;-83
2021/12/21 14:00:28;;;;;;;13.93;10.57;;;;;;;;;;4921316;28;20051;-84
2021/12/21 14:03:06;;;;;;;15.18;11.43;;;;;;;;;;4941581;28;20050;-84
2021/12/21 14:05:45;;;;;;;15.45;11.02;;;;;;;;;;4919788;28;20490;-82
2021/12/21 14:08:12;;;;;;;14.82;10.73;;;;;;;;;;4904660;28;20129;-82
2021/12/21 14:10:46;;;;;;;14.13;10.68;;;;;;;;;;4893037;28;20093;-81
2021/12/21 14:13:14;;;;;;;14.27;11.10;;;;;;;;;;4918665;28;20047;-81
2021/12/21 14:15:59;;;;;;;16.02;10.88;;;;;;;;;;4913666;29;20051;-82
2021/12/21 14:18:37;;;;;;;15.95;11.45;;;;;;;;;;4864524;29;20443;-81
2021/12/21 14:21:14;;;;;;;16.73;12.18;;;;;;;;;;4909750;29;20067;-81
2021/12/21 14:23:42;;;;;;;17.08;11.95;;;;;;;;;;4923867;29;20095;-80
2021/12/21 14:26:13;;;;;;;17.55;11.50;;;;;;;;;;4875271;29;20052;-82
2021/12/21 14:29:01;;;;;;;15.57;11.32;;;;;;;;;;4896846;29;20052;-82
2021/12/21 14:31:32;;;;;;;14.60;11.77;;;;;;;;;;4896367;29;20060;-81
2021/12/21 14:34:01;;;;;;;15.30;11.80;;;;;;;;;;4902887;29;20063;-82
2021/12/21 14:36:40;;;;;;;15.65;12.20;;;;;;;;;;4912526;29;20083;-82
2021/12/21 14:39:08;;;;;;;13.77;11.27;;;;;;;;;;4905375;29;20412;-82
2021/12/21 14:41:36;;;;;;;15.70;11.90;;;;;;;;;;4901116;29;20055;-83
2021/12/21 14:44:07;;;;;;;19.02;12.05;;;;;;;;;;4908656;29;20051;-82
2021/12/21 14:47:00;;;;;;;16.48;11.40;;;;;;;;;;4905723;28;20103;-82
2021/12/21 14:49:50;;;;;;;18.08;11.88;;;;;;;;;;4925847;28;20154;-82
2021/12/21 14:52:20;;;;;;;15.75;12.27;;;;;;;;;;4935110;28;20043;-82
2021/12/21 14:54:51;;;;;;;16.63;12.18;;;;;;;;;;4921732;29;20043;-82
2021/12/21 14:57:19;;;;;;;16.48;13.18;;;;;;;;;;4935105;28;20078;-82
2021/12/21 14:59:51;;;;;;;18.52;13.63;;;;;;;;;;4926668;29;20035;-82
2021/12/21 15:05:16;;;;;;;17.10;12.93;;;;;;;;;;4955069;28;20044;-82
2021/12/21 15:07:43;;;;;;;18.83;12.63;;;;;;;;;;4963292;28;20047;-82
2021/12/21 15:10:11;;;;;;;16.67;12.10;;;;;;;;;;4928976;28;20054;-82
2021/12/21 15:12:38;;;;;;;15.68;12.00;;;;;;;;;;4935531;28;20055;-82
2021/12/21 15:15:05;;;;;;;16.92;12.35;;;;;;;;;;4920973;29;20047;-82
2021/12/21 15:17:48;;;;;;;17.63;12.55;;;;;;;;;;4938226;28;20058;-80
2021/12/21 15:20:15;;;;;;;18.48;12.98;;;;;;;;;;4931794;28;20036;-83
2021/12/21 15:22:57;;;;;;;18.08;13.45;;;;;;;;;;4884507;29;20048;-81
2021/12/21 15:25:24;;;;;;;20.88;13.10;;;;;;;;;;4871883;29;20052;-81
2021/12/21 15:28:06;;;;;;;18.25;13.38;;;;;;;;;;4864035;29;20093;-81
2021/12/21 15:30:35;;;;;;;17.42;12.57;;;;;;;;;;4833818;29;20049;-81
2021/12/21 15:33:04;;;;;;;19.65;13.43;;;;;;;;;;4842164;29;20049;-81
2021/12/21 15:35:36;;;;;;;16.73;13.38;;;;;;;;;;4879367;29;20076;-81
2021/12/21 15:38:03;;;;;;;17.73;13.30;;;;;;;;;;4866099;29;20049;-80
2021/12/21 15:40:36;;;;;;;17.35;13.48;;;;;;;;;;4825707;29;20109;-80
2021/12/21 15:43:06;;;;;;;17.40;13.82;;;;;;;;;;4855952;29;20060;-80
2021/12/21 15:45:36;;;;;;;18.88;13.40;;;;;;;;;;4852205;29;20087;-81
2021/12/21 15:48:04;;;;;;;18.10;12.88;;;;;;;;;;4854140;29;20044;-81
2021/12/21 15:50:33;;;;;;;16.05;12.48;;;;;;;;;;4835872;29;20053;-80
2021/12/21 15:53:08;;;;;;;19.98;13.30;;;;;;;;;;4843279;29;20044;-81
2021/12/21 15:55:34;;;;;;;21.27;14.50;;;;;;;;;;4877830;29;20134;-82
2021/12/21 15:58:02;;;;;;;18.77;13.00;;;;;;;;;;4893191;28;20057;-83
2021/12/21 16:00:37;;;;;;;18.63;13.57;;;;;;;;;;4933114;28;20043;-83
2021/12/21 16:03:05;;;;;;;18.23;12.70;;;;;;;;;;4898997;28;20046;-83